Time;durP1;ratioP1;P1;durP2;ratioP2;P2;SDS_P1;SDS_P2;PMS_P1;PMS_P2;Temp;Humidity;BMP_temperature;BMP_pressure;BME280_temperature;BME280_humidity;BME280_pressure;Samples;Min_cycle;Max_cycle;Signal;HPM_P1;HPM_P2
2022/09/10 00:00:05;;;;;;;;;;;;;;;;;;5175796;27;19923;-43
2022/09/10 00:02:35;;;;;;;;;;;;;;;;;;5175531;27;19923;-44
2022/09/10 00:05:03;;;;;;;;;;;;;;;;;;5175381;27;19923;-47
2022/09/10 00:07:31;;;;;;;;;;;;;;;;;;5175127;27;19945;-49
2022/09/10 00:09:58;;;;;;;;;;;;;;;;;;5175673;27;19987;-48
2022/09/10 00:12:25;;;;;;;;;;;;;;;;;;5175544;27;20022;-47
2022/09/10 00:14:53;;;;;;;;;;;;;;;;;;5175557;27;19927;-49
2022/09/10 00:17:20;;;;;;;;;;;;;;;;;;5175503;27;19922;-47
2022/09/10 00:19:47;;;;;;;;;;;;;;;;;;5175669;27;19969;-44
2022/09/10 00:22:14;;;;;;;;;;;;;;;;;;5175362;27;19927;-44
2022/09/10 00:24:42;;;;;;;;;;;;;;;;;;5175349;27;20025;-44
2022/09/10 00:27:09;;;;;;;;;;;;;;;;;;5173531;27;20385;-51
2022/09/10 00:29:37;;;;;;;;;;;;;;;;;;5175102;27;20009;-51
2022/09/10 00:32:04;;;;;;;;;;;;;;;;;;5175193;27;20009;-46
2022/09/10 00:34:31;;;;;;;;;;;;;;;;;;5175394;27;20334;-47
2022/09/10 00:36:58;;;;;;;;;;;;;;;;;;5175203;27;19923;-49
2022/09/10 00:39:26;;;;;;;;;;;;;;;;;;5174876;27;19923;-43
2022/09/10 00:41:53;;;;;;;;;;;;;;;;;;5175106;27;19927;-46
2022/09/10 00:44:39;;;;;;;;;;;;;;;;;;5175121;27;19929;-45
2022/09/10 00:47:08;;;;;;;;;;;;;;;;;;5174747;27;20331;-47
2022/09/10 00:49:37;;;;;;;;;;;;;;;;;;5174841;27;19930;-47
2022/09/10 00:52:06;;;;;;;;;;;;;;;;;;5173770;27;19965;-43
2022/09/10 00:54:34;;;;;;;;;;;;;;;;;;5174949;27;20292;-46
2022/09/10 00:57:03;;;;;;;;;;;;;;;;;;5173708;27;19929;-45
2022/09/10 00:59:31;;;;;;;;;;;;;;;;;;5179217;27;20014;-46
2022/09/10 01:01:59;;;;;;;;;;;;;;;;;;5177859;27;19923;-46
2022/09/10 01:04:27;;;;;;;;;;;;;;;;;;5166894;27;19927;-46
2022/09/10 01:06:57;;;;;;;;;;;;;;;;;;5160042;27;19923;-45
2022/09/10 01:09:25;;;;;;;;;;;;;;;;;;5156440;27;19934;-44
2022/09/10 01:12:07;;;;;;;;;;;;;;;;;;5158148;27;19955;-48
2022/09/10 01:14:47;;;;;;;;;;;;;;;;;;5158172;27;19929;-46
2022/09/10 01:17:24;;;;;;;;;;;;;;;;;;5156708;27;19968;-44
2022/09/10 01:20:10;;;;;;;;;;;;;;;;;;5156785;27;19927;-43
2022/09/10 01:22:52;;;;;;;;;;;;;;;;;;5157985;27;20305;-47
2022/09/10 01:25:32;;;;;;;;;;;;;;;;;;5156847;27;19967;-43
2022/09/10 01:28:02;;;;;;;;;;;;;;;;;;5155963;27;19923;-47
2022/09/10 01:30:34;;;;;;;;;;;;;;;;;;5156567;27;19975;-45
2022/09/10 01:33:05;;;;;;;;;;;;;;;;;;5156512;27;19923;-46
2022/09/10 01:35:45;;;;;;;;;;;;;;;;;;5156431;27;20398;-44
2022/09/10 01:38:22;;;;;;;;;;;;;;;;;;5157510;27;19930;-44
2022/09/10 01:40:52;;;;;;;;;;;;;;;;;;5157807;27;20446;-44
2022/09/10 01:43:21;;;;;;;;;;;;;;;;;;5156343;27;19923;-48
2022/09/10 01:45:56;;;;;;;;;;;;;;;;;;5156375;27;19929;-44
2022/09/10 01:48:23;;;;;;;;;;;;;;;;;;5155889;27;19923;-45
2022/09/10 01:51:11;;;;;;;;;;;;;;;;;;5156270;27;19929;-48
2022/09/10 01:53:46;;;;;;;;;;;;;;;;;;5156188;27;19973;-47
2022/09/10 01:56:20;;;;;;;;;;;;;;;;;;5157389;27;20010;-45
2022/09/10 01:58:49;;;;;;;;;;;;;;;;;;5146639;27;19959;-46
2022/09/10 02:01:34;;;;;;;;;;;;;;;;;;5134620;27;20305;-48
2022/09/10 02:04:04;;;;;;;;;;;;;;;;;;5146943;27;19923;-48
2022/09/10 02:06:33;;;;;;;;;;;;;;;;;;5155711;27;20396;-49
2022/09/10 02:09:02;;;;;;;;;;;;;;;;;;5155185;27;19930;-46
2022/09/10 02:11:30;;;;;;;;;;;;;;;;;;5156958;27;20013;-48
2022/09/10 02:14:00;;;;;;;;;;;;;;;;;;5155617;27;19927;-43
2022/09/10 02:16:43;;;;;;;;;;;;;;;;;;5156786;27;20382;-46
2022/09/10 02:19:13;;;;;;;;;;;;;;;;;;5155661;27;20438;-44
2022/09/10 02:21:40;;;;;;;;;;;;;;;;;;5156886;27;19923;-44
2022/09/10 02:24:08;;;;;;;;;;;;;;;;;;5156730;27;19966;-44
2022/09/10 02:26:38;;;;;;;;;;;;;;;;;;5156355;27;19923;-46
2022/09/10 02:29:06;;;;;;;;;;;;;;;;;;5155248;27;19932;-48
2022/09/10 02:31:34;;;;;;;;;;;;;;;;;;5156477;27;19927;-46
2022/09/10 02:34:04;;;;;;;;;;;;;;;;;;5156717;27;19923;-46
2022/09/10 02:36:31;;;;;;;;;;;;;;;;;;5138186;27;19927;-48
2022/09/10 02:38:59;;;;;;;;;;;;;;;;;;5156508;27;19923;-43
2022/09/10 02:41:32;;;;;;;;;;;;;;;;;;5155033;27;19930;-50
2022/09/10 02:44:01;;;;;;;;;;;;;;;;;;5155217;27;19930;-43
2022/09/10 02:46:28;;;;;;;;;;;;;;;;;;5154519;27;20381;-48
2022/09/10 02:48:56;;;;;;;;;;;;;;;;;;5156005;27;19967;-43
2022/09/10 02:51:23;;;;;;;;;;;;;;;;;;5154655;27;19971;-46
2022/09/10 02:53:51;;;;;;;;;;;;;;;;;;5155052;27;19930;-46
2022/09/10 02:56:18;;;;;;;;;;;;;;;;;;5154913;27;19927;-49
2022/09/10 02:58:46;;;;;;;;;;;;;;;;;;5154641;27;19930;-47
2022/09/10 03:01:15;;;;;;;;;;;;;;;;;;5154037;27;19935;-44
2022/09/10 03:03:51;;;;;;;;;;;;;;;;;;5154268;27;19923;-46
2022/09/10 03:06:20;;;;;;;;;;;;;;;;;;5156096;27;20273;-47
2022/09/10 03:08:47;;;;;;;;;;;;;;;;;;5169976;27;19922;-49
2022/09/10 03:11:15;;;;;;;;;;;;;;;;;;5176596;27;19974;-46
2022/09/10 03:13:44;;;;;;;;;;;;;;;;;;5157884;27;19972;-51
2022/09/10 03:16:12;;;;;;;;;;;;;;;;;;5157829;27;20382;-48
2022/09/10 03:18:43;;;;;;;;;;;;;;;;;;5157762;27;20025;-50
2022/09/10 03:21:35;;;;;;;;;;;;;;;;;;5174003;27;19983;-45
2022/09/10 03:24:36;;;;;;;;;;;;;;;;;;5175111;27;19923;-45
2022/09/10 03:27:28;;;;;;;;;;;;;;;;;;5156330;27;19923;-51
2022/09/10 03:30:24;;;;;;;;;;;;;;;;;;5156586;27;20771;-49
2022/09/10 03:33:03;;;;;;;;;;;;;;;;;;5157503;27;19923;-49
2022/09/10 03:35:30;;;;;;;;;;;;;;;;;;5176310;27;19965;-46
2022/09/10 03:38:01;;;;;;;;;;;;;;;;;;5176229;27;19972;-44
2022/09/10 03:40:28;;;;;;;;;;;;;;;;;;5157685;27;20389;-44
2022/09/10 03:42:55;;;;;;;;;;;;;;;;;;5175953;27;20005;-49
2022/09/10 03:45:23;;;;;;;;;;;;;;;;;;5157414;27;19950;-45
2022/09/10 03:47:50;;;;;;;;;;;;;;;;;;5156913;27;20018;-45
2022/09/10 03:50:18;;;;;;;;;;;;;;;;;;5156971;27;19922;-50
2022/09/10 03:52:45;;;;;;;;;;;;;;;;;;5175888;27;19954;-48
2022/09/10 03:55:13;;;;;;;;;;;;;;;;;;5157123;27;19969;-50
2022/09/10 03:57:44;;;;;;;;;;;;;;;;;;5157108;27;20003;-45
2022/09/10 04:00:13;;;;;;;;;;;;;;;;;;5156894;27;19923;-44
2022/09/10 04:02:40;;;;;;;;;;;;;;;;;;5175607;27;20029;-50
2022/09/10 04:05:09;;;;;;;;;;;;;;;;;;5156836;27;20094;-44
2022/09/10 04:07:36;;;;;;;;;;;;;;;;;;5156415;27;20381;-50
2022/09/10 04:10:04;;;;;;;;;;;;;;;;;;5156627;27;19975;-48
2022/09/10 04:12:31;;;;;;;;;;;;;;;;;;5155798;27;19926;-42
2022/09/10 04:15:03;;;;;;;;;;;;;;;;;;5135102;27;19923;-47
2022/09/10 04:17:30;;;;;;;;;;;;;;;;;;5152325;27;19984;-48
2022/09/10 04:19:58;;;;;;;;;;;;;;;;;;5152959;27;20347;-45
2022/09/10 04:22:27;;;;;;;;;;;;;;;;;;5133618;27;20301;-47
2022/09/10 04:24:55;;;;;;;;;;;;;;;;;;5134634;27;20394;-51
2022/09/10 04:27:22;;;;;;;;;;;;;;;;;;5132644;27;19923;-41
2022/09/10 04:29:51;;;;;;;;;;;;;;;;;;5135711;27;19923;-46
2022/09/10 04:32:19;;;;;;;;;;;;;;;;;;5135571;27;19924;-48
2022/09/10 04:34:48;;;;;;;;;;;;;;;;;;5178720;27;20022;-45
2022/09/10 04:37:17;;;;;;;;;;;;;;;;;;5171094;27;19923;-46
2022/09/10 04:39:46;;;;;;;;;;;;;;;;;;5174806;27;20300;-44
2022/09/10 04:42:14;;;;;;;;;;;;;;;;;;5174992;27;20009;-50
2022/09/10 04:44:41;;;;;;;;;;;;;;;;;;5156085;27;19922;-47
2022/09/10 04:47:08;;;;;;;;;;;;;;;;;;5174755;27;19933;-46
2022/09/10 04:49:36;;;;;;;;;;;;;;;;;;5155586;27;19931;-44
2022/09/10 04:52:04;;;;;;;;;;;;;;;;;;5156042;27;20369;-47
2022/09/10 04:54:35;;;;;;;;;;;;;;;;;;5155860;27;19934;-40
2022/09/10 04:57:05;;;;;;;;;;;;;;;;;;5155566;27;20305;-44
2022/09/10 04:59:32;;;;;;;;;;;;;;;;;;5155967;27;20370;-46
2022/09/10 05:02:00;;;;;;;;;;;;;;;;;;5155992;27;19926;-48
2022/09/10 05:04:28;;;;;;;;;;;;;;;;;;5155947;27;19967;-46
2022/09/10 05:06:58;;;;;;;;;;;;;;;;;;5174544;27;20379;-46
2022/09/10 05:09:29;;;;;;;;;;;;;;;;;;5152419;27;19937;-51
2022/09/10 05:12:00;;;;;;;;;;;;;;;;;;5152728;27;19923;-46
2022/09/10 05:14:31;;;;;;;;;;;;;;;;;;5141926;27;20450;-44
2022/09/10 05:16:58;;;;;;;;;;;;;;;;;;5133111;27;19924;-47
2022/09/10 05:19:28;;;;;;;;;;;;;;;;;;5131344;28;19935;-44
2022/09/10 05:22:03;;;;;;;;;;;;;;;;;;5131979;28;19974;-46
2022/09/10 05:24:33;;;;;;;;;;;;;;;;;;5131875;28;19928;-48
2022/09/10 05:27:02;;;;;;;;;;;;;;;;;;5131824;28;19929;-48
2022/09/10 05:29:30;;;;;;;;;;;;;;;;;;5131545;28;19923;-45
2022/09/10 05:31:57;;;;;;;;;;;;;;;;;;5131593;28;19931;-49
2022/09/10 05:34:25;;;;;;;;;;;;;;;;;;5131198;28;19923;-50
2022/09/10 05:36:52;;;;;;;;;;;;;;;;;;5131730;28;19924;-46
2022/09/10 05:39:20;;;;;;;;;;;;;;;;;;5131518;28;19923;-48
2022/09/10 05:41:47;;;;;;;;;;;;;;;;;;5133003;27;19924;-50
2022/09/10 05:44:16;;;;;;;;;;;;;;;;;;5134300;27;19923;-51
2022/09/10 05:46:44;;;;;;;;;;;;;;;;;;5135219;27;19923;-48
2022/09/10 05:49:14;;;;;;;;;;;;;;;;;;5135271;27;19931;-49
2022/09/10 05:51:41;;;;;;;;;;;;;;;;;;5135437;27;19923;-46
2022/09/10 05:54:10;;;;;;;;;;;;;;;;;;5135237;27;20357;-47
2022/09/10 05:56:38;;;;;;;;;;;;;;;;;;5135272;27;19973;-45
2022/09/10 05:59:06;;;;;;;;;;;;;;;;;;5135181;27;19927;-49
2022/09/10 06:01:33;;;;;;;;;;;;;;;;;;5136587;27;19927;-48
2022/09/10 06:04:03;;;;;;;;;;;;;;;;;;5145989;27;19930;-44
2022/09/10 06:06:31;;;;;;;;;;;;;;;;;;5155392;27;19933;-49
2022/09/10 06:09:06;;;;;;;;;;;;;;;;;;5155581;27;19923;-49
2022/09/10 06:11:42;;;;;;;;;;;;;;;;;;5155646;27;19927;-46
2022/09/10 06:14:10;;;;;;;;;;;;;;;;;;5156930;27;19923;-47
2022/09/10 06:16:37;;;;;;;;;;;;;;;;;;5156856;27;20308;-46
2022/09/10 06:19:07;;;;;;;;;;;;;;;;;;5155887;27;19923;-47
2022/09/10 06:21:35;;;;;;;;;;;;;;;;;;5155448;27;19934;-49
2022/09/10 06:24:03;;;;;;;;;;;;;;;;;;5155321;27;19927;-48
2022/09/10 06:26:35;;;;;;;;;;;;;;;;;;5155589;27;19975;-47
2022/09/10 06:29:08;;;;;;;;;;;;;;;;;;5155409;27;19923;-50
2022/09/10 06:31:37;;;;;;;;;;;;;;;;;;5155504;27;19923;-47
2022/09/10 06:34:05;;;;;;;;;;;;;;;;;;5155184;27;19923;-51
2022/09/10 06:36:32;;;;;;;;;;;;;;;;;;5156262;27;20022;-49
2022/09/10 06:39:02;;;;;;;;;;;;;;;;;;5155230;27;19927;-48
2022/09/10 06:41:39;;;;;;;;;;;;;;;;;;5154881;27;20506;-46
2022/09/10 06:44:11;;;;;;;;;;;;;;;;;;5156460;27;20282;-49
2022/09/10 06:46:49;;;;;;;;;;;;;;;;;;5154712;27;19925;-47
2022/09/10 06:49:36;;;;;;;;;;;;;;;;;;5154945;27;20374;-47
2022/09/10 06:52:04;;;;;;;;;;;;;;;;;;5154686;27;19930;-52
2022/09/10 06:54:32;;;;;;;;;;;;;;;;;;5154687;27;19994;-48
2022/09/10 06:57:12;;;;;;;;;;;;;;;;;;5154395;27;19923;-46
2022/09/10 06:59:43;;;;;;;;;;;;;;;;;;5155693;27;19927;-46
2022/09/10 07:02:11;;;;;;;;;;;;;;;;;;5154611;27;19923;-44
2022/09/10 07:04:39;;;;;;;;;;;;;;;;;;5155642;27;19923;-48
2022/09/10 07:07:08;;;;;;;;;;;;;;;;;;5156109;27;19923;-48
2022/09/10 07:09:35;;;;;;;;;;;;;;;;;;5154282;27;19927;-45
2022/09/10 07:12:03;;;;;;;;;;;;;;;;;;5155647;27;19956;-48
2022/09/10 07:14:34;;;;;;;;;;;;;;;;;;5154509;27;19924;-48
2022/09/10 07:17:05;;;;;;;;;;;;;;;;;;5154413;27;19966;-48
2022/09/10 07:19:35;;;;;;;;;;;;;;;;;;5154187;27;20013;-49
2022/09/10 07:22:10;;;;;;;;;;;;;;;;;;5155750;27;20365;-50
2022/09/10 07:24:38;;;;;;;;;;;;;;;;;;5153939;27;20453;-49
2022/09/10 07:27:09;;;;;;;;;;;;;;;;;;5155595;27;19927;-49
2022/09/10 07:29:40;;;;;;;;;;;;;;;;;;5154260;27;20409;-51
2022/09/10 07:32:12;;;;;;;;;;;;;;;;;;5154271;27;19927;-47
2022/09/10 07:34:40;;;;;;;;;;;;;;;;;;5154366;27;20389;-48
2022/09/10 07:37:07;;;;;;;;;;;;;;;;;;5153062;27;19927;-46
2022/09/10 07:39:35;;;;;;;;;;;;;;;;;;5153755;27;19927;-50
2022/09/10 07:42:02;;;;;;;;;;;;;;;;;;5153943;27;20381;-47
2022/09/10 07:44:34;;;;;;;;;;;;;;;;;;5153646;27;19927;-48
2022/09/10 07:47:02;;;;;;;;;;;;;;;;;;5155195;27;20014;-48
2022/09/10 07:49:31;;;;;;;;;;;;;;;;;;5153310;27;19949;-47
2022/09/10 07:52:02;;;;;;;;;;;;;;;;;;5153317;27;20404;-48
2022/09/10 07:54:36;;;;;;;;;;;;;;;;;;5154787;27;20339;-50
2022/09/10 07:57:04;;;;;;;;;;;;;;;;;;5153491;27;19927;-47
2022/09/10 07:59:33;;;;;;;;;;;;;;;;;;5153319;27;19929;-47
2022/09/10 08:02:02;;;;;;;;;;;;;;;;;;5153471;27;19975;-45
2022/09/10 08:04:30;;;;;;;;;;;;;;;;;;5154621;27;19923;-48
2022/09/10 08:07:03;;;;;;;;;;;;;;;;;;5152838;27;19975;-50
2022/09/10 08:09:32;;;;;;;;;;;;;;;;;;5152913;27;19930;-52
2022/09/10 08:12:01;;;;;;;;;;;;;;;;;;5153145;27;20030;-48
2022/09/10 08:14:30;;;;;;;;;;;;;;;;;;5153146;27;20018;-50
2022/09/10 08:17:00;;;;;;;;;;;;;;;;;;5153262;27;19923;-51
2022/09/10 08:19:28;;;;;;;;;;;;;;;;;;5153011;27;19935;-45
2022/09/10 08:21:57;;;;;;;;;;;;;;;;;;5154613;27;19962;-50
2022/09/10 08:24:30;;;;;;;;;;;;;;;;;;5152972;27;19923;-49
2022/09/10 08:26:59;;;;;;;;;;;;;;;;;;5154380;27;20374;-47
2022/09/10 08:29:27;;;;;;;;;;;;;;;;;;5153886;27;19975;-46
2022/09/10 08:31:57;;;;;;;;;;;;;;;;;;5154597;27;19927;-45
2022/09/10 08:34:29;;;;;;;;;;;;;;;;;;5154331;27;20335;-52
2022/09/10 08:37:07;;;;;;;;;;;;;;;;;;5149832;27;19930;-44
2022/09/10 08:39:39;;;;;;;;;;;;;;;;;;5152043;27;19979;-44
2022/09/10 08:42:15;;;;;;;;;;;;;;;;;;5153574;27;20390;-44
2022/09/10 08:45:05;;;;;;;;;;;;;;;;;;5151367;27;19981;-51
2022/09/10 08:47:57;;;;;;;;;;;;;;;;;;5140154;27;19934;-45
2022/09/10 08:50:43;;;;;;;;;;;;;;;;;;5153494;27;19976;-45
2022/09/10 08:53:27;;;;;;;;;;;;;;;;;;5154326;27;19997;-46
2022/09/10 08:56:07;;;;;;;;;;;;;;;;;;5150244;27;19923;-49
2022/09/10 08:58:43;;;;;;;;;;;;;;;;;;5153568;27;19927;-46
2022/09/10 09:01:42;;;;;;;;;;;;;;;;;;5152629;27;20382;-45
2022/09/10 09:04:29;;;;;;;;;;;;;;;;;;5150733;27;19929;-49
2022/09/10 09:07:10;;;;;;;;;;;;;;;;;;5152138;27;19945;-46
2022/09/10 09:09:39;;;;;;;;;;;;;;;;;;5153157;27;19931;-44
2022/09/10 09:12:20;;;;;;;;;;;;;;;;;;5153114;27;20301;-46
2022/09/10 09:14:52;;;;;;;;;;;;;;;;;;5153328;27;19935;-47
2022/09/10 09:17:28;;;;;;;;;;;;;;;;;;5152943;27;20335;-45
2022/09/10 09:20:04;;;;;;;;;;;;;;;;;;5137817;27;19987;-50
2022/09/10 09:22:53;;;;;;;;;;;;;;;;;;5156181;27;19970;-46
2022/09/10 09:25:46;;;;;;;;;;;;;;;;;;5157117;27;20271;-46
2022/09/10 09:28:35;;;;;;;;;;;;;;;;;;5156632;27;19930;-44
2022/09/10 09:31:09;;;;;;;;;;;;;;;;;;5125865;27;20435;-44
2022/09/10 09:33:40;;;;;;;;;;;;;;;;;;5157147;27;20386;-47
2022/09/10 09:36:12;;;;;;;;;;;;;;;;;;5156233;27;19923;-45
2022/09/10 09:38:47;;;;;;;;;;;;;;;;;;5156825;27;19945;-49
2022/09/10 09:41:31;;;;;;;;;;;;;;;;;;5156024;27;19927;-48
2022/09/10 09:44:09;;;;;;;;;;;;;;;;;;5157315;27;19923;-47
2022/09/10 09:46:39;;;;;;;;;;;;;;;;;;5155963;27;19930;-46
2022/09/10 09:49:10;;;;;;;;;;;;;;;;;;5155642;27;20019;-45
2022/09/10 09:51:39;;;;;;;;;;;;;;;;;;5156741;27;19927;-49
2022/09/10 09:54:13;;;;;;;;;;;;;;;;;;5157012;27;19930;-50
2022/09/10 09:57:01;;;;;;;;;;;;;;;;;;5139602;27;20019;-50
2022/09/10 09:59:30;;;;;;;;;;;;;;;;;;5135975;27;20026;-44
2022/09/10 10:02:03;;;;;;;;;;;;;;;;;;5136099;27;19927;-43
2022/09/10 10:04:32;;;;;;;;;;;;;;;;;;5150622;27;20405;-44
2022/09/10 10:07:02;;;;;;;;;;;;;;;;;;5156732;27;20018;-43
2022/09/10 10:09:37;;;;;;;;;;;;;;;;;;5176132;27;19969;-42
2022/09/10 10:12:06;;;;;;;;;;;;;;;;;;5177680;27;20021;-47
2022/09/10 10:14:42;;;;;;;;;;;;;;;;;;5177503;27;19923;-45
2022/09/10 10:17:24;;;;;;;;;;;;;;;;;;5177553;27;19922;-46
2022/09/10 10:19:57;;;;;;;;;;;;;;;;;;5177893;27;20278;-48
2022/09/10 10:22:26;;;;;;;;;;;;;;;;;;5177640;27;19946;-49
2022/09/10 10:24:53;;;;;;;;;;;;;;;;;;5177503;27;19923;-47
2022/09/10 10:27:50;;;;;;;;;;;;;;;;;;5177576;27;19970;-47
2022/09/10 10:30:17;;;;;;;;;;;;;;;;;;5175530;27;19927;-49
2022/09/10 10:32:57;;;;;;;;;;;;;;;;;;5176593;27;19923;-52
2022/09/10 10:35:28;;;;;;;;;;;;;;;;;;5176713;27;19923;-46
2022/09/10 10:38:04;;;;;;;;;;;;;;;;;;5175433;27;20310;-50
2022/09/10 10:40:36;;;;;;;;;;;;;;;;;;5175502;27;19933;-46
2022/09/10 10:43:19;;;;;;;;;;;;;;;;;;5154574;27;19923;-45
2022/09/10 10:45:47;;;;;;;;;;;;;;;;;;5154630;27;19923;-46
2022/09/10 10:48:24;;;;;;;;;;;;;;;;;;5154337;27;19997;-48
2022/09/10 10:51:03;;;;;;;;;;;;;;;;;;5162799;27;20010;-48
2022/09/10 10:53:33;;;;;;;;;;;;;;;;;;5174575;27;19927;-44
2022/09/10 10:56:18;;;;;;;;;;;;;;;;;;5174910;27;19923;-44
2022/09/10 10:58:47;;;;;;;;;;;;;;;;;;5174937;27;19991;-45
2022/09/10 11:01:23;;;;;;;;;;;;;;;;;;5174765;27;20096;-46
2022/09/10 11:03:55;;;;;;;;;;;;;;;;;;5174899;27;19923;-43
2022/09/10 11:06:24;;;;;;;;;;;;;;;;;;5174615;27;19948;-47
2022/09/10 11:09:06;;;;;;;;;;;;;;;;;;5173873;27;19923;-48
2022/09/10 11:11:43;;;;;;;;;;;;;;;;;;5174402;27;19923;-45
2022/09/10 11:14:29;;;;;;;;;;;;;;;;;;5174657;27;19922;-48
2022/09/10 11:17:01;;;;;;;;;;;;;;;;;;5174451;27;19946;-50
2022/09/10 11:19:35;;;;;;;;;;;;;;;;;;5174642;27;20025;-49
2022/09/10 11:22:09;;;;;;;;;;;;;;;;;;5173694;27;19927;-45
2022/09/10 11:24:50;;;;;;;;;;;;;;;;;;5174637;27;19922;-44
2022/09/10 11:27:37;;;;;;;;;;;;;;;;;;5174509;27;19975;-47
2022/09/10 11:30:08;;;;;;;;;;;;;;;;;;5173320;27;19926;-46
2022/09/10 11:32:42;;;;;;;;;;;;;;;;;;5173990;27;19926;-48
2022/09/10 11:35:27;;;;;;;;;;;;;;;;;;5173046;27;20411;-44
2022/09/10 11:37:54;;;;;;;;;;;;;;;;;;5155283;27;19946;-51
2022/09/10 11:40:32;;;;;;;;;;;;;;;;;;5173996;27;20058;-50
2022/09/10 11:43:02;;;;;;;;;;;;;;;;;;5173023;27;20013;-46
2022/09/10 11:45:51;;;;;;;;;;;;;;;;;;5169135;27;19927;-46
2022/09/10 11:48:29;;;;;;;;;;;;;;;;;;5153608;27;20057;-42
2022/09/10 11:51:00;;;;;;;;;;;;;;;;;;5152851;27;20301;-49
2022/09/10 11:53:28;;;;;;;;;;;;;;;;;;5152811;27;20014;-46
2022/09/10 11:55:58;;;;;;;;;;;;;;;;;;5152598;27;19930;-44
2022/09/10 11:58:38;;;;;;;;;;;;;;;;;;5152943;27;19923;-48
2022/09/10 12:01:12;;;;;;;;;;;;;;;;;;5134901;27;19927;-51
2022/09/10 12:03:48;;;;;;;;;;;;;;;;;;5141861;27;19923;-44
2022/09/10 12:06:41;;;;;;;;;;;;;;;;;;5173464;27;19923;-43
2022/09/10 12:09:11;;;;;;;;;;;;;;;;;;5127176;27;19927;-45
2022/09/10 12:11:46;;;;;;;;;;;;;;;;;;5173300;27;20345;-47
2022/09/10 12:14:15;;;;;;;;;;;;;;;;;;5173668;27;20034;-46
2022/09/10 12:16:45;;;;;;;;;;;;;;;;;;5173519;27;19922;-44
2022/09/10 12:19:21;;;;;;;;;;;;;;;;;;5173613;27;19948;-44
2022/09/10 12:21:52;;;;;;;;;;;;;;;;;;5173708;27;19958;-46
2022/09/10 12:24:22;;;;;;;;;;;;;;;;;;5173680;27;19947;-52
2022/09/10 12:26:49;;;;;;;;;;;;;;;;;;5173105;27;19937;-46
2022/09/10 12:29:33;;;;;;;;;;;;;;;;;;5173320;27;20018;-45
2022/09/10 12:32:06;;;;;;;;;;;;;;;;;;5173570;27;19930;-47
2022/09/10 12:34:34;;;;;;;;;;;;;;;;;;5145463;27;19923;-47
2022/09/10 12:37:01;;;;;;;;;;;;;;;;;;5152209;27;20405;-45
2022/09/10 12:39:29;;;;;;;;;;;;;;;;;;5152234;27;20626;-47
2022/09/10 12:41:58;;;;;;;;;;;;;;;;;;5151854;27;19929;-45
2022/09/10 12:44:35;;;;;;;;;;;;;;;;;;5152354;27;19957;-50
2022/09/10 12:47:17;;;;;;;;;;;;;;;;;;5152357;27;20347;-48
2022/09/10 12:49:54;;;;;;;;;;;;;;;;;;5151790;27;19933;-44
2022/09/10 12:52:40;;;;;;;;;;;;;;;;;;5152178;27;19978;-46
2022/09/10 12:55:20;;;;;;;;;;;;;;;;;;5151914;27;20314;-45
2022/09/10 12:57:59;;;;;;;;;;;;;;;;;;5152154;27;19923;-45
2022/09/10 13:00:40;;;;;;;;;;;;;;;;;;5152391;27;20275;-43
2022/09/10 13:03:14;;;;;;;;;;;;;;;;;;5154992;27;19930;-49
2022/09/10 13:05:44;;;;;;;;;;;;;;;;;;5173171;27;20377;-50
2022/09/10 13:08:14;;;;;;;;;;;;;;;;;;5172773;27;19923;-47
2022/09/10 13:10:48;;;;;;;;;;;;;;;;;;5173141;27;20416;-46
2022/09/10 13:13:36;;;;;;;;;;;;;;;;;;5173161;27;19948;-48
2022/09/10 13:16:04;;;;;;;;;;;;;;;;;;5173210;27;19954;-51
2022/09/10 13:18:35;;;;;;;;;;;;;;;;;;5172646;27;19926;-46
2022/09/10 13:21:21;;;;;;;;;;;;;;;;;;5172957;27;19971;-44
2022/09/10 13:23:50;;;;;;;;;;;;;;;;;;5172486;27;20411;-45
2022/09/10 13:26:35;;;;;;;;;;;;;;;;;;5172541;27;20373;-44
2022/09/10 13:29:16;;;;;;;;;;;;;;;;;;5172762;27;20282;-45
2022/09/10 13:31:44;;;;;;;;;;;;;;;;;;5172320;27;20694;-49
2022/09/10 13:34:12;;;;;;;;;;;;;;;;;;5172780;27;20436;-45
2022/09/10 13:36:55;;;;;;;;;;;;;;;;;;5173005;27;19958;-44
2022/09/10 13:39:46;;;;;;;;;;;;;;;;;;5173004;27;20329;-44
2022/09/10 13:42:19;;;;;;;;;;;;;;;;;;5172701;27;19929;-48
2022/09/10 13:45:05;;;;;;;;;;;;;;;;;;5172716;27;19929;-48
2022/09/10 13:47:41;;;;;;;;;;;;;;;;;;5173044;27;20294;-50
2022/09/10 13:50:13;;;;;;;;;;;;;;;;;;5172205;27;19933;-46
2022/09/10 13:52:44;;;;;;;;;;;;;;;;;;5172740;27;19961;-48
2022/09/10 13:55:17;;;;;;;;;;;;;;;;;;5172578;27;19923;-44
2022/09/10 13:57:47;;;;;;;;;;;;;;;;;;5172497;27;19926;-44
2022/09/10 14:00:14;;;;;;;;;;;;;;;;;;5172672;27;19979;-45
2022/09/10 14:02:49;;;;;;;;;;;;;;;;;;5172733;27;19926;-45
2022/09/10 14:05:25;;;;;;;;;;;;;;;;;;5153561;27;19983;-44
2022/09/10 14:07:53;;;;;;;;;;;;;;;;;;5155524;27;20350;-44
2022/09/10 14:10:21;;;;;;;;;;;;;;;;;;5155615;27;19929;-44
2022/09/10 14:12:49;;;;;;;;;;;;;;;;;;5155140;27;20306;-44
2022/09/10 14:15:19;;;;;;;;;;;;;;;;;;5155471;27;19923;-47
2022/09/10 14:17:52;;;;;;;;;;;;;;;;;;5153722;27;19972;-45
2022/09/10 14:20:29;;;;;;;;;;;;;;;;;;5155432;27;19927;-48
2022/09/10 14:23:04;;;;;;;;;;;;;;;;;;5155352;27;19923;-47
2022/09/10 14:25:36;;;;;;;;;;;;;;;;;;5155138;27;20014;-48
2022/09/10 14:28:30;;;;;;;;;;;;;;;;;;5155004;27;19923;-50
2022/09/10 14:31:15;;;;;;;;;;;;;;;;;;5151013;27;19932;-49
2022/09/10 14:33:43;;;;;;;;;;;;;;;;;;5136354;27;20394;-44
2022/09/10 14:36:21;;;;;;;;;;;;;;;;;;5154791;27;19923;-46
2022/09/10 14:39:06;;;;;;;;;;;;;;;;;;5154862;27;19960;-49
2022/09/10 14:41:34;;;;;;;;;;;;;;;;;;5153372;27;19923;-47
2022/09/10 14:44:21;;;;;;;;;;;;;;;;;;5154831;27;19923;-45
2022/09/10 14:46:58;;;;;;;;;;;;;;;;;;5154802;27;20274;-48
2022/09/10 14:49:32;;;;;;;;;;;;;;;;;;5154504;27;20389;-46
2022/09/10 14:52:03;;;;;;;;;;;;;;;;;;5154400;27;19923;-46
2022/09/10 14:54:32;;;;;;;;;;;;;;;;;;5154413;27;19927;-47
2022/09/10 14:57:08;;;;;;;;;;;;;;;;;;5135938;27;19923;-46
2022/09/10 14:59:40;;;;;;;;;;;;;;;;;;5154286;27;19931;-46
2022/09/10 15:02:25;;;;;;;;;;;;;;;;;;5154120;27;19927;-45
2022/09/10 15:04:52;;;;;;;;;;;;;;;;;;5172202;27;19923;-46
2022/09/10 15:07:22;;;;;;;;;;;;;;;;;;5175062;27;19966;-47
2022/09/10 15:09:52;;;;;;;;;;;;;;;;;;5175181;27;19926;-47
2022/09/10 15:12:23;;;;;;;;;;;;;;;;;;5174961;27;19934;-44
2022/09/10 15:14:51;;;;;;;;;;;;;;;;;;5175268;27;19930;-46
2022/09/10 15:17:18;;;;;;;;;;;;;;;;;;5174088;27;19981;-48
2022/09/10 15:19:47;;;;;;;;;;;;;;;;;;5156435;27;20017;-48
2022/09/10 15:22:25;;;;;;;;;;;;;;;;;;5174702;27;19982;-51
2022/09/10 15:24:53;;;;;;;;;;;;;;;;;;5175218;27;20568;-49
2022/09/10 15:27:37;;;;;;;;;;;;;;;;;;5174788;27;19933;-45
2022/09/10 15:30:05;;;;;;;;;;;;;;;;;;5174392;27;19967;-43
2022/09/10 15:32:32;;;;;;;;;;;;;;;;;;5174404;27;19923;-47
2022/09/10 15:34:59;;;;;;;;;;;;;;;;;;5172741;27;19930;-47
2022/09/10 15:37:27;;;;;;;;;;;;;;;;;;5172689;27;19922;-47
2022/09/10 15:39:57;;;;;;;;;;;;;;;;;;5173546;27;19922;-48
2022/09/10 15:42:24;;;;;;;;;;;;;;;;;;5173582;27;20013;-49
2022/09/10 15:44:51;;;;;;;;;;;;;;;;;;5174045;27;20412;-47
2022/09/10 15:47:18;;;;;;;;;;;;;;;;;;5174065;27;20014;-48
2022/09/10 15:49:46;;;;;;;;;;;;;;;;;;5173828;27;19927;-46
2022/09/10 15:52:13;;;;;;;;;;;;;;;;;;5174136;27;19923;-44
2022/09/10 15:54:41;;;;;;;;;;;;;;;;;;5174140;27;19923;-50
2022/09/10 15:57:09;;;;;;;;;;;;;;;;;;5173724;27;19923;-48
2022/09/10 15:59:36;;;;;;;;;;;;;;;;;;5173755;27;20294;-48
2022/09/10 16:02:05;;;;;;;;;;;;;;;;;;5173961;27;19923;-49
2022/09/10 16:04:32;;;;;;;;;;;;;;;;;;5174224;27;19923;-48
2022/09/10 16:07:02;;;;;;;;;;;;;;;;;;5173969;27;19977;-46
2022/09/10 16:09:30;;;;;;;;;;;;;;;;;;5173501;27;20688;-46
2022/09/10 16:11:57;;;;;;;;;;;;;;;;;;5173854;27;19927;-46
2022/09/10 16:14:25;;;;;;;;;;;;;;;;;;5174005;27;19922;-48
2022/09/10 16:16:52;;;;;;;;;;;;;;;;;;5173765;27;19929;-50
2022/09/10 16:19:20;;;;;;;;;;;;;;;;;;5173426;27;19978;-45
2022/09/10 16:21:47;;;;;;;;;;;;;;;;;;5173828;27;19933;-45
2022/09/10 16:24:14;;;;;;;;;;;;;;;;;;5173374;27;19923;-48
2022/09/10 16:26:42;;;;;;;;;;;;;;;;;;5173606;27;19946;-47
2022/09/10 16:29:14;;;;;;;;;;;;;;;;;;5173119;27;20377;-45
2022/09/10 16:31:44;;;;;;;;;;;;;;;;;;5173486;27;20435;-50
2022/09/10 16:34:15;;;;;;;;;;;;;;;;;;5172882;27;20337;-49
2022/09/10 16:36:42;;;;;;;;;;;;;;;;;;5173026;27;19923;-48
2022/09/10 16:39:13;;;;;;;;;;;;;;;;;;5173413;27;20496;-52
2022/09/10 16:41:42;;;;;;;;;;;;;;;;;;5173485;27;19942;-47
2022/09/10 16:44:10;;;;;;;;;;;;;;;;;;5173224;27;19969;-46
2022/09/10 16:46:37;;;;;;;;;;;;;;;;;;5155041;27;20017;-52
2022/09/10 16:49:06;;;;;;;;;;;;;;;;;;5173474;27;20017;-45
2022/09/10 16:51:36;;;;;;;;;;;;;;;;;;5173175;27;19923;-47
2022/09/10 16:54:05;;;;;;;;;;;;;;;;;;5173274;27;19930;-45
2022/09/10 16:56:34;;;;;;;;;;;;;;;;;;5173257;27;19923;-47
2022/09/10 16:59:02;;;;;;;;;;;;;;;;;;5173319;27;19979;-47
2022/09/10 17:01:29;;;;;;;;;;;;;;;;;;5173112;27;19926;-58
2022/09/10 17:03:57;;;;;;;;;;;;;;;;;;5172718;27;19926;-48
2022/09/10 17:06:26;;;;;;;;;;;;;;;;;;5173315;27;19969;-46
2022/09/10 17:08:54;;;;;;;;;;;;;;;;;;5173167;27;20006;-44
2022/09/10 17:11:24;;;;;;;;;;;;;;;;;;5173324;27;19922;-46
2022/09/10 17:13:53;;;;;;;;;;;;;;;;;;5173265;27;19929;-44
2022/09/10 17:16:23;;;;;;;;;;;;;;;;;;5173030;27;20005;-43
2022/09/10 17:18:57;;;;;;;;;;;;;;;;;;5173246;27;19930;-45